Saint Charles, MO

10:00 AM CDT on April 24, 2017 (GMT -0500)
Foxborough Estates | | Change Station
Active Advisory: Flood Warning

Elev 489 ft 38.81 °N, 90.56 °W | Updated 12 seconds ago

Partly Cloudy
Partly Cloudy
64.1 °F
Feels Like 64.1 °F
N
0.0
Wind Variable Wind from ENE
Gusts 1.0 mph

Today
High -- | Low -- °F
--% Chance of Precip.
Yesterday
High -- | Low -- °F
Precip. -- in
Pressure 29.96 in
Visibility 10.0 miles
Clouds Mostly Cloudy 25000 ft
Dew Point 47 °F
Humidity 53%
Rainfall 0.00 in
Snow Depth Not available.
6:12 AM 7:47 PM
Waning Crescent, 5% visible
METAR KSTL 241451Z COR 11005KT 10SM BKN250 18/03 A2997 RMK AO2 SLP144 T01780033 50002
Pressure 29.96 in
Visibility 10.0 miles
Clouds Mostly Cloudy 25000 ft
Dew Point 47 °F
Humidity 53%
Rainfall 0.00 in
Snow Depth Not available.
6:12 AM 7:47 PM
Waning Crescent, 5% visible
METAR KSTL 241451Z COR 11005KT 10SM BKN250 18/03 A2997 RMK AO2 SLP144 T01780033 50002

Get Your Daily Forecast Email!

Thanks for signing up!

Be on the lookout for a verification email in your inbox.

You'll start receiving severe weather alerts in your inbox..

×

10-Day Weather Forecast

Almanac

Astronomy

Apr. 24, 2017 Rise Set
Actual Time
Civil Twilight
Nautical Twilight
Astronomical Twilight
Moon
Length of Visible Light
Length of Day
Tomorrow will be .
, % of the Moon is Illuminated

Today's Extremes

State Highs State Lows

Community

WunderPhotos

WunderBlog® & News

Nearby

Air Quality

  Air Quality AQ Index Pollutant
Not available.

Snow Depth

Station Depth Elevation

Earthquake Activity

City Distance Mag. Time & Date
Minimum magnitude displayed is 2.5.

Coastal Water Temperatures

Place Temperature

Stations

Nearby Weather Stations

Station Location Temp. Windchill Dew Point Humidity Wind Precip. Elev Updated Type
                   

Watches & Warnings

Flood Warning
Issued: 8:53 PM CDT Apr. 23, 2017 – National Weather Service

The Flood Warning continues for
the Mississippi River at Grafton
* until Friday afternoon.
* At 8:30 PM Sunday the stage was 18.0 feet.
* Flood stage is 18.0 feet.
* Minor flooding is forecast.
* The river is forecast to continue rising to near feet by early
Tuesday morning, then fall below flood stage Thursday early
afternoon.
* Impact: at 18.0 feet... flood stage. Right bank begins to
overflow... flooding farmland.
* Impact: at 16.2 feet... for navigational purposes through Alton lock
and dam control, the corps will not allow the river to exceed this
level, if at all possible. Above this level, water inundates land
not owned by the usace.

                   Fld latest 7 a.M. Forecast
location stg obs stg 04/24 04/25 04/26 04/27 04/28

Mississippi River
Grafton 18.0 18.04 18.1 18.0 18.0 17.8 17.8




Lat... Lon 3881 9057 3888 9057 3899 9046 3895 9028
      3882 9048